| Date | Time | Temp. (oF) | Dew Point (oF) | Rel. Hum. (%) | Press. (in.) | Wind Dir. | Wind Speed (mph) | Hourly Rainfall (in.) |
|
|---|---|---|---|---|---|---|---|---|---|
| 1 | 11/18 | 00:00 | 37 | 34 | 90 | 30.47 | S | 0 | 0.00 |
| 2 | 11/17 | 23:00 | 38 | 35 | 90 | 30.46 | S | 0 | 0.00 |
| 3 | 11/17 | 22:00 | 38 | 34 | 87 | 30.46 | ESE | 2 | 0.00 |
| 4 | 11/17 | 21:00 | 40 | 33 | 78 | 30.45 | S | 0 | 0.00 |
| 5 | 11/17 | 20:00 | 42 | 33 | 73 | 30.44 | S | 0 | 0.00 |
| 6 | 11/17 | 19:00 | 46 | 34 | 64 | 30.44 | E | 0 | 0.00 |
| 7 | 11/17 | 18:00 | 50 | 34 | 55 | 30.42 | E | 0 | 0.00 |
| 8 | 11/17 | 17:00 | 54 | 34 | 48 | 30.40 | ENE | 1 | 0.00 |
| 9 | 11/17 | 16:00 | 57 | 34 | 43 | 30.38 | ESE | 4 | 0.00 |
| 10 | 11/17 | 15:00 | 58 | 34 | 42 | 30.39 | ENE | 5 | 0.00 |
| 11 | 11/17 | 14:00 | 58 | 36 | 44 | 30.40 | S | 2 | 0.00 |
| 12 | 11/17 | 13:00 | 56 | 35 | 46 | 30.40 | SSE | 4 | 0.00 |
| 13 | 11/17 | 12:00 | 55 | 36 | 49 | 30.42 | ENE | 9 | 0.00 |
| 14 | 11/17 | 11:00 | 52 | 38 | 59 | 30.44 | E | 5 | 0.00 |
| 15 | 11/17 | 10:00 | 50 | 38 | 64 | 30.45 | NE | 12 | 0.00 |
| 16 | 11/17 | 09:00 | 44 | 43 | 97 | 30.45 | N | 6 | 0.00 |
| 17 | 11/17 | 08:00 | 36 | 35 | 97 | 30.43 | NW | 0 | 0.00 |
| 18 | 11/17 | 07:00 | 36 | 34 | 95 | 30.40 | W | 0 | 0.00 |
| 19 | 11/17 | 06:00 | 38 | 36 | 93 | 30.38 | W | 0 | 0.00 |
| 20 | 11/17 | 05:00 | 40 | 37 | 90 | 30.35 | WNW | 0 | 0.00 |
| 21 | 11/17 | 04:00 | 43 | 39 | 87 | 30.32 | SSE | 1 | 0.00 |
| 22 | 11/17 | 03:00 | 46 | 40 | 82 | 30.31 | NNW | 3 | 0.00 |
| 23 | 11/17 | 02:00 | 49 | 42 | 77 | 30.29 | NW | 1 | 0.00 |
| 24 | 11/17 | 01:00 | 51 | 42 | 74 | 30.27 | N | 8 | 0.00 |